sensor_id;sensor_type;location;lat;lon;timestamp;P1;durP1;ratioP1;P2;durP2;ratioP2
65092;SDS011;52025;50.288;2.794;2022-10-31T00:00:30;3.42;;;1.25;;
65092;SDS011;52025;50.288;2.794;2022-10-31T00:02:55;4.05;;;1.15;;
65092;SDS011;52025;50.288;2.794;2022-10-31T00:05:20;2.60;;;1.30;;
65092;SDS011;52025;50.288;2.794;2022-10-31T00:07:46;5.38;;;1.88;;
65092;SDS011;52025;50.288;2.794;2022-10-31T00:10:11;4.30;;;1.27;;
65092;SDS011;52025;50.288;2.794;2022-10-31T00:12:38;3.08;;;1.02;;
65092;SDS011;52025;50.288;2.794;2022-10-31T00:15:03;4.80;;;1.50;;
65092;SDS011;52025;50.288;2.794;2022-10-31T00:17:29;3.58;;;1.42;;
65092;SDS011;52025;50.288;2.794;2022-10-31T00:19:54;4.03;;;1.48;;
65092;SDS011;52025;50.288;2.794;2022-10-31T00:22:19;4.55;;;1.50;;
65092;SDS011;52025;50.288;2.794;2022-10-31T00:24:45;2.85;;;1.33;;
65092;SDS011;52025;50.288;2.794;2022-10-31T00:27:10;5.38;;;1.70;;
65092;SDS011;52025;50.288;2.794;2022-10-31T00:29:35;3.78;;;1.40;;
65092;SDS011;52025;50.288;2.794;2022-10-31T00:32:01;4.47;;;1.50;;
65092;SDS011;52025;50.288;2.794;2022-10-31T00:34:26;4.82;;;1.65;;
65092;SDS011;52025;50.288;2.794;2022-10-31T00:36:51;3.60;;;1.35;;
65092;SDS011;52025;50.288;2.794;2022-10-31T00:39:17;4.10;;;1.65;;
65092;SDS011;52025;50.288;2.794;2022-10-31T00:41:42;3.75;;;1.58;;
65092;SDS011;52025;50.288;2.794;2022-10-31T00:44:07;4.40;;;1.52;;
65092;SDS011;52025;50.288;2.794;2022-10-31T00:46:33;5.30;;;2.30;;
65092;SDS011;52025;50.288;2.794;2022-10-31T00:48:58;6.05;;;1.63;;
65092;SDS011;52025;50.288;2.794;2022-10-31T00:51:23;4.20;;;1.88;;
65092;SDS011;52025;50.288;2.794;2022-10-31T00:53:49;4.20;;;2.03;;
65092;SDS011;52025;50.288;2.794;2022-10-31T00:56:14;4.22;;;2.13;;
65092;SDS011;52025;50.288;2.794;2022-10-31T00:58:39;7.32;;;2.50;;
65092;SDS011;52025;50.288;2.794;2022-10-31T01:01:05;3.67;;;1.95;;
65092;SDS011;52025;50.288;2.794;2022-10-31T01:03:31;5.13;;;1.98;;
65092;SDS011;52025;50.288;2.794;2022-10-31T01:08:24;3.67;;;1.75;;
65092;SDS011;52025;50.288;2.794;2022-10-31T01:11:00;4.22;;;1.92;;
65092;SDS011;52025;50.288;2.794;2022-10-31T01:13:26;7.22;;;1.95;;
65092;SDS011;52025;50.288;2.794;2022-10-31T01:15:55;4.18;;;1.67;;
65092;SDS011;52025;50.288;2.794;2022-10-31T01:18:20;4.60;;;1.90;;
65092;SDS011;52025;50.288;2.794;2022-10-31T01:20:46;5.28;;;1.90;;
65092;SDS011;52025;50.288;2.794;2022-10-31T01:23:11;5.65;;;1.73;;
65092;SDS011;52025;50.288;2.794;2022-10-31T01:25:36;4.07;;;1.70;;
65092;SDS011;52025;50.288;2.794;2022-10-31T01:28:02;4.47;;;1.58;;
65092;SDS011;52025;50.288;2.794;2022-10-31T01:30:27;3.92;;;1.48;;
65092;SDS011;52025;50.288;2.794;2022-10-31T01:32:52;4.63;;;1.60;;
65092;SDS011;52025;50.288;2.794;2022-10-31T01:35:18;4.03;;;1.55;;
65092;SDS011;52025;50.288;2.794;2022-10-31T01:37:43;4.10;;;1.80;;
65092;SDS011;52025;50.288;2.794;2022-10-31T01:40:08;3.55;;;1.55;;
65092;SDS011;52025;50.288;2.794;2022-10-31T01:42:34;2.97;;;1.40;;
65092;SDS011;52025;50.288;2.794;2022-10-31T01:45:00;4.75;;;1.45;;
65092;SDS011;52025;50.288;2.794;2022-10-31T01:47:38;4.35;;;1.30;;
65092;SDS011;52025;50.288;2.794;2022-10-31T01:50:06;2.15;;;1.30;;
65092;SDS011;52025;50.288;2.794;2022-10-31T01:52:38;4.50;;;1.50;;
65092;SDS011;52025;50.288;2.794;2022-10-31T01:55:09;3.55;;;1.42;;
65092;SDS011;52025;50.288;2.794;2022-10-31T01:57:37;3.50;;;1.40;;
65092;SDS011;52025;50.288;2.794;2022-10-31T02:00:04;2.90;;;1.33;;
65092;SDS011;52025;50.288;2.794;2022-10-31T02:02:31;3.72;;;1.40;;
65092;SDS011;52025;50.288;2.794;2022-10-31T02:04:56;4.78;;;1.60;;
65092;SDS011;52025;50.288;2.794;2022-10-31T02:07:24;3.83;;;1.52;;
65092;SDS011;52025;50.288;2.794;2022-10-31T02:09:50;3.58;;;1.00;;
65092;SDS011;52025;50.288;2.794;2022-10-31T02:12:16;5.15;;;1.45;;
65092;SDS011;52025;50.288;2.794;2022-10-31T02:14:42;2.53;;;1.33;;
65092;SDS011;52025;50.288;2.794;2022-10-31T02:17:08;3.85;;;1.85;;
65092;SDS011;52025;50.288;2.794;2022-10-31T02:19:46;2.75;;;1.45;;
65092;SDS011;52025;50.288;2.794;2022-10-31T02:22:26;6.43;;;1.70;;
65092;SDS011;52025;50.288;2.794;2022-10-31T02:30:12;3.13;;;1.52;;
65092;SDS011;52025;50.288;2.794;2022-10-31T02:35:17;2.78;;;1.35;;
65092;SDS011;52025;50.288;2.794;2022-10-31T02:41:21;3.30;;;1.42;;
65092;SDS011;52025;50.288;2.794;2022-10-31T02:46:34;3.33;;;1.30;;
65092;SDS011;52025;50.288;2.794;2022-10-31T02:49:04;2.75;;;1.33;;
65092;SDS011;52025;50.288;2.794;2022-10-31T02:51:31;3.25;;;1.45;;
65092;SDS011;52025;50.288;2.794;2022-10-31T02:53:57;3.90;;;1.67;;
65092;SDS011;52025;50.288;2.794;2022-10-31T02:56:22;3.10;;;1.30;;
65092;SDS011;52025;50.288;2.794;2022-10-31T02:58:51;2.47;;;1.27;;
65092;SDS011;52025;50.288;2.794;2022-10-31T03:01:37;4.68;;;1.88;;
65092;SDS011;52025;50.288;2.794;2022-10-31T03:06:57;2.80;;;1.30;;
65092;SDS011;52025;50.288;2.794;2022-10-31T03:09:28;4.93;;;1.50;;
65092;SDS011;52025;50.288;2.794;2022-10-31T03:11:58;2.40;;;1.30;;
65092;SDS011;52025;50.288;2.794;2022-10-31T03:17:14;3.42;;;1.23;;
65092;SDS011;52025;50.288;2.794;2022-10-31T03:19:42;2.90;;;1.40;;
65092;SDS011;52025;50.288;2.794;2022-10-31T03:22:16;2.95;;;1.40;;
65092;SDS011;52025;50.288;2.794;2022-10-31T03:24:42;2.40;;;1.38;;
65092;SDS011;52025;50.288;2.794;2022-10-31T03:27:09;3.03;;;1.58;;
65092;SDS011;52025;50.288;2.794;2022-10-31T03:29:35;3.83;;;1.58;;
65092;SDS011;52025;50.288;2.794;2022-10-31T03:32:03;5.82;;;1.58;;
65092;SDS011;52025;50.288;2.794;2022-10-31T03:34:30;4.00;;;1.60;;
65092;SDS011;52025;50.288;2.794;2022-10-31T03:36:57;4.05;;;1.40;;
65092;SDS011;52025;50.288;2.794;2022-10-31T03:39:24;4.75;;;1.55;;
65092;SDS011;52025;50.288;2.794;2022-10-31T03:41:59;5.43;;;1.80;;
65092;SDS011;52025;50.288;2.794;2022-10-31T03:44:27;5.10;;;1.40;;
65092;SDS011;52025;50.288;2.794;2022-10-31T03:46:54;5.13;;;1.75;;
65092;SDS011;52025;50.288;2.794;2022-10-31T03:49:19;4.50;;;1.40;;
65092;SDS011;52025;50.288;2.794;2022-10-31T03:51:47;4.35;;;1.83;;
65092;SDS011;52025;50.288;2.794;2022-10-31T03:57:00;3.92;;;1.55;;
65092;SDS011;52025;50.288;2.794;2022-10-31T03:59:41;4.82;;;1.55;;
65092;SDS011;52025;50.288;2.794;2022-10-31T04:02:07;5.75;;;1.80;;
65092;SDS011;52025;50.288;2.794;2022-10-31T04:04:36;4.30;;;1.77;;
65092;SDS011;52025;50.288;2.794;2022-10-31T04:07:02;8.25;;;2.03;;
65092;SDS011;52025;50.288;2.794;2022-10-31T04:09:28;5.43;;;1.80;;
65092;SDS011;52025;50.288;2.794;2022-10-31T04:11:56;2.83;;;1.42;;
65092;SDS011;52025;50.288;2.794;2022-10-31T04:14:22;4.53;;;2.15;;
65092;SDS011;52025;50.288;2.794;2022-10-31T04:16:49;4.18;;;1.85;;
65092;SDS011;52025;50.288;2.794;2022-10-31T04:19:14;2.78;;;1.42;;
65092;SDS011;52025;50.288;2.794;2022-10-31T04:21:40;4.93;;;1.80;;
65092;SDS011;52025;50.288;2.794;2022-10-31T04:24:08;4.75;;;1.90;;
65092;SDS011;52025;50.288;2.794;2022-10-31T04:26:33;3.67;;;1.70;;
65092;SDS011;52025;50.288;2.794;2022-10-31T04:28:58;4.05;;;2.10;;
65092;SDS011;52025;50.288;2.794;2022-10-31T04:31:24;5.97;;;2.20;;
65092;SDS011;52025;50.288;2.794;2022-10-31T04:33:49;5.30;;;1.70;;
65092;SDS011;52025;50.288;2.794;2022-10-31T04:36:14;5.43;;;1.75;;
65092;SDS011;52025;50.288;2.794;2022-10-31T04:38:40;4.55;;;2.13;;
65092;SDS011;52025;50.288;2.794;2022-10-31T04:41:05;3.28;;;1.55;;
65092;SDS011;52025;50.288;2.794;2022-10-31T04:43:31;5.68;;;1.88;;
65092;SDS011;52025;50.288;2.794;2022-10-31T04:45:56;4.28;;;1.77;;
65092;SDS011;52025;50.288;2.794;2022-10-31T04:48:21;3.55;;;1.85;;
65092;SDS011;52025;50.288;2.794;2022-10-31T04:50:47;3.80;;;1.60;;
65092;SDS011;52025;50.288;2.794;2022-10-31T04:53:12;3.35;;;1.48;;
65092;SDS011;52025;50.288;2.794;2022-10-31T04:55:37;4.32;;;1.80;;
65092;SDS011;52025;50.288;2.794;2022-10-31T04:58:03;3.67;;;1.63;;
65092;SDS011;52025;50.288;2.794;2022-10-31T05:00:28;3.88;;;1.60;;
65092;SDS011;52025;50.288;2.794;2022-10-31T05:02:55;3.70;;;1.92;;
65092;SDS011;52025;50.288;2.794;2022-10-31T05:05:24;4.45;;;1.60;;
65092;SDS011;52025;50.288;2.794;2022-10-31T05:07:51;4.03;;;1.77;;
65092;SDS011;52025;50.288;2.794;2022-10-31T05:10:17;5.25;;;2.00;;
65092;SDS011;52025;50.288;2.794;2022-10-31T05:12:54;4.05;;;1.92;;
65092;SDS011;52025;50.288;2.794;2022-10-31T05:15:20;3.97;;;1.88;;
65092;SDS011;52025;50.288;2.794;2022-10-31T05:17:46;5.25;;;2.20;;
65092;SDS011;52025;50.288;2.794;2022-10-31T05:20:12;4.80;;;2.10;;
65092;SDS011;52025;50.288;2.794;2022-10-31T05:22:41;3.75;;;2.00;;
65092;SDS011;52025;50.288;2.794;2022-10-31T05:25:07;3.92;;;1.70;;
65092;SDS011;52025;50.288;2.794;2022-10-31T05:27:32;5.38;;;2.30;;
65092;SDS011;52025;50.288;2.794;2022-10-31T05:29:58;6.50;;;1.90;;
65092;SDS011;52025;50.288;2.794;2022-10-31T05:32:23;3.85;;;1.80;;
65092;SDS011;52025;50.288;2.794;2022-10-31T05:34:48;4.90;;;1.85;;
65092;SDS011;52025;50.288;2.794;2022-10-31T05:37:13;8.20;;;3.60;;
65092;SDS011;52025;50.288;2.794;2022-10-31T05:39:39;4.55;;;2.10;;
65092;SDS011;52025;50.288;2.794;2022-10-31T05:42:04;4.82;;;1.88;;
65092;SDS011;52025;50.288;2.794;2022-10-31T05:44:29;4.63;;;2.28;;
65092;SDS011;52025;50.288;2.794;2022-10-31T05:46:55;4.85;;;2.53;;
65092;SDS011;52025;50.288;2.794;2022-10-31T05:49:20;5.03;;;2.35;;
65092;SDS011;52025;50.288;2.794;2022-10-31T05:51:45;6.30;;;2.15;;
65092;SDS011;52025;50.288;2.794;2022-10-31T05:54:11;6.15;;;2.40;;
65092;SDS011;52025;50.288;2.794;2022-10-31T05:56:36;10.93;;;2.50;;
65092;SDS011;52025;50.288;2.794;2022-10-31T05:59:01;5.30;;;2.30;;
65092;SDS011;52025;50.288;2.794;2022-10-31T06:01:27;4.88;;;2.35;;
65092;SDS011;52025;50.288;2.794;2022-10-31T06:03:52;5.35;;;3.20;;
65092;SDS011;52025;50.288;2.794;2022-10-31T06:06:17;5.18;;;2.70;;
65092;SDS011;52025;50.288;2.794;2022-10-31T06:08:43;5.63;;;2.40;;
65092;SDS011;52025;50.288;2.794;2022-10-31T06:11:08;5.47;;;2.70;;
65092;SDS011;52025;50.288;2.794;2022-10-31T06:13:33;7.07;;;2.72;;
65092;SDS011;52025;50.288;2.794;2022-10-31T06:15:59;5.00;;;2.47;;
65092;SDS011;52025;50.288;2.794;2022-10-31T06:18:24;10.13;;;3.33;;
65092;SDS011;52025;50.288;2.794;2022-10-31T06:20:49;7.03;;;3.10;;
65092;SDS011;52025;50.288;2.794;2022-10-31T06:23:15;5.28;;;2.90;;
65092;SDS011;52025;50.288;2.794;2022-10-31T06:25:40;6.78;;;3.20;;
65092;SDS011;52025;50.288;2.794;2022-10-31T06:28:05;6.88;;;3.65;;
65092;SDS011;52025;50.288;2.794;2022-10-31T06:30:31;5.15;;;2.80;;
65092;SDS011;52025;50.288;2.794;2022-10-31T06:33:03;5.88;;;2.97;;
65092;SDS011;52025;50.288;2.794;2022-10-31T06:35:29;7.63;;;3.17;;
65092;SDS011;52025;50.288;2.794;2022-10-31T06:37:54;4.82;;;2.60;;
65092;SDS011;52025;50.288;2.794;2022-10-31T06:40:20;8.02;;;3.00;;
65092;SDS011;52025;50.288;2.794;2022-10-31T06:42:45;5.80;;;3.60;;
65092;SDS011;52025;50.288;2.794;2022-10-31T06:45:10;7.60;;;3.75;;
65092;SDS011;52025;50.288;2.794;2022-10-31T06:47:36;8.35;;;3.45;;
65092;SDS011;52025;50.288;2.794;2022-10-31T06:50:01;7.15;;;3.42;;
65092;SDS011;52025;50.288;2.794;2022-10-31T06:52:26;7.68;;;3.92;;
65092;SDS011;52025;50.288;2.794;2022-10-31T06:54:52;8.20;;;3.97;;
65092;SDS011;52025;50.288;2.794;2022-10-31T06:57:17;5.93;;;3.63;;
65092;SDS011;52025;50.288;2.794;2022-10-31T06:59:42;5.60;;;3.05;;
65092;SDS011;52025;50.288;2.794;2022-10-31T07:02:11;6.00;;;3.28;;
65092;SDS011;52025;50.288;2.794;2022-10-31T07:04:36;6.35;;;3.67;;
65092;SDS011;52025;50.288;2.794;2022-10-31T07:07:02;9.88;;;4.00;;
65092;SDS011;52025;50.288;2.794;2022-10-31T07:09:27;11.25;;;4.38;;
65092;SDS011;52025;50.288;2.794;2022-10-31T07:11:53;7.35;;;4.07;;
65092;SDS011;52025;50.288;2.794;2022-10-31T07:14:18;7.22;;;3.80;;
65092;SDS011;52025;50.288;2.794;2022-10-31T07:16:44;7.88;;;4.43;;
65092;SDS011;52025;50.288;2.794;2022-10-31T07:19:12;11.63;;;5.05;;
65092;SDS011;52025;50.288;2.794;2022-10-31T07:21:38;8.32;;;4.28;;
65092;SDS011;52025;50.288;2.794;2022-10-31T07:24:03;12.77;;;5.00;;
65092;SDS011;52025;50.288;2.794;2022-10-31T07:26:29;10.35;;;4.75;;
65092;SDS011;52025;50.288;2.794;2022-10-31T07:28:54;7.60;;;4.18;;
65092;SDS011;52025;50.288;2.794;2022-10-31T07:31:19;8.40;;;3.90;;
65092;SDS011;52025;50.288;2.794;2022-10-31T07:33:45;8.15;;;4.20;;
65092;SDS011;52025;50.288;2.794;2022-10-31T07:36:10;12.63;;;4.22;;
65092;SDS011;52025;50.288;2.794;2022-10-31T07:38:35;8.00;;;4.70;;
65092;SDS011;52025;50.288;2.794;2022-10-31T07:41:01;9.38;;;4.63;;
65092;SDS011;52025;50.288;2.794;2022-10-31T07:43:26;10.63;;;4.15;;
65092;SDS011;52025;50.288;2.794;2022-10-31T07:45:52;9.50;;;4.50;;
65092;SDS011;52025;50.288;2.794;2022-10-31T07:48:17;7.45;;;4.20;;
65092;SDS011;52025;50.288;2.794;2022-10-31T07:50:43;10.60;;;4.65;;
65092;SDS011;52025;50.288;2.794;2022-10-31T07:53:10;8.30;;;4.10;;
65092;SDS011;52025;50.288;2.794;2022-10-31T07:55:36;8.93;;;4.57;;
65092;SDS011;52025;50.288;2.794;2022-10-31T07:58:02;8.20;;;4.35;;
65092;SDS011;52025;50.288;2.794;2022-10-31T08:00:30;7.50;;;4.35;;
65092;SDS011;52025;50.288;2.794;2022-10-31T08:02:56;8.57;;;4.57;;
65092;SDS011;52025;50.288;2.794;2022-10-31T08:05:22;14.68;;;7.90;;
65092;SDS011;52025;50.288;2.794;2022-10-31T08:07:47;10.65;;;6.60;;
65092;SDS011;52025;50.288;2.794;2022-10-31T08:10:13;9.45;;;5.47;;
65092;SDS011;52025;50.288;2.794;2022-10-31T08:12:38;8.52;;;5.00;;
65092;SDS011;52025;50.288;2.794;2022-10-31T08:15:03;9.27;;;5.25;;
65092;SDS011;52025;50.288;2.794;2022-10-31T08:17:29;8.98;;;4.78;;
65092;SDS011;52025;50.288;2.794;2022-10-31T08:19:55;9.73;;;5.10;;
65092;SDS011;52025;50.288;2.794;2022-10-31T08:22:20;7.68;;;4.68;;
65092;SDS011;52025;50.288;2.794;2022-10-31T08:27:15;7.50;;;4.13;;
65092;SDS011;52025;50.288;2.794;2022-10-31T08:29:40;7.40;;;4.35;;
65092;SDS011;52025;50.288;2.794;2022-10-31T08:32:06;8.23;;;4.40;;
65092;SDS011;52025;50.288;2.794;2022-10-31T08:34:31;8.07;;;4.18;;
65092;SDS011;52025;50.288;2.794;2022-10-31T08:36:56;8.63;;;3.75;;
65092;SDS011;52025;50.288;2.794;2022-10-31T08:39:22;9.38;;;4.30;;
65092;SDS011;52025;50.288;2.794;2022-10-31T08:41:47;12.77;;;4.30;;
65092;SDS011;52025;50.288;2.794;2022-10-31T08:44:12;8.35;;;4.50;;
65092;SDS011;52025;50.288;2.794;2022-10-31T08:46:39;8.18;;;4.13;;
65092;SDS011;52025;50.288;2.794;2022-10-31T08:49:04;7.65;;;4.60;;
65092;SDS011;52025;50.288;2.794;2022-10-31T08:51:29;7.55;;;4.28;;
65092;SDS011;52025;50.288;2.794;2022-10-31T08:53:54;6.22;;;3.63;;
65092;SDS011;52025;50.288;2.794;2022-10-31T08:56:20;4.90;;;2.45;;
65092;SDS011;52025;50.288;2.794;2022-10-31T08:58:47;9.55;;;4.53;;
65092;SDS011;52025;50.288;2.794;2022-10-31T09:01:15;6.57;;;3.08;;
65092;SDS011;52025;50.288;2.794;2022-10-31T09:03:41;7.32;;;3.92;;
65092;SDS011;52025;50.288;2.794;2022-10-31T09:06:07;4.55;;;2.78;;
65092;SDS011;52025;50.288;2.794;2022-10-31T09:08:34;8.82;;;4.88;;
65092;SDS011;52025;50.288;2.794;2022-10-31T09:11:04;9.68;;;4.47;;
65092;SDS011;52025;50.288;2.794;2022-10-31T09:13:31;8.82;;;4.18;;
65092;SDS011;52025;50.288;2.794;2022-10-31T09:15:57;7.95;;;4.07;;
65092;SDS011;52025;50.288;2.794;2022-10-31T09:18:28;6.85;;;4.13;;
65092;SDS011;52025;50.288;2.794;2022-10-31T09:20:53;8.57;;;4.20;;
65092;SDS011;52025;50.288;2.794;2022-10-31T09:23:21;7.10;;;3.55;;
65092;SDS011;52025;50.288;2.794;2022-10-31T09:25:47;6.15;;;3.63;;
65092;SDS011;52025;50.288;2.794;2022-10-31T09:28:15;7.47;;;3.20;;
65092;SDS011;52025;50.288;2.794;2022-10-31T09:30:41;14.98;;;6.78;;
65092;SDS011;52025;50.288;2.794;2022-10-31T09:33:07;9.38;;;5.68;;
65092;SDS011;52025;50.288;2.794;2022-10-31T09:35:34;11.60;;;5.60;;
65092;SDS011;52025;50.288;2.794;2022-10-31T09:38:00;10.57;;;5.88;;
65092;SDS011;52025;50.288;2.794;2022-10-31T09:40:36;8.85;;;4.57;;
65092;SDS011;52025;50.288;2.794;2022-10-31T09:53:00;6.77;;;3.53;;
65092;SDS011;52025;50.288;2.794;2022-10-31T09:58:03;8.18;;;3.65;;
65092;SDS011;52025;50.288;2.794;2022-10-31T10:00:31;8.15;;;4.22;;
65092;SDS011;52025;50.288;2.794;2022-10-31T10:03:42;5.35;;;2.55;;
65092;SDS011;52025;50.288;2.794;2022-10-31T10:05:51;7.85;;;2.97;;
65092;SDS011;52025;50.288;2.794;2022-10-31T10:08:19;7.95;;;4.00;;
65092;SDS011;52025;50.288;2.794;2022-10-31T10:18:41;7.82;;;2.92;;
65092;SDS011;52025;50.288;2.794;2022-10-31T10:28:41;4.50;;;2.22;;
65092;SDS011;52025;50.288;2.794;2022-10-31T10:31:10;8.15;;;4.40;;
65092;SDS011;52025;50.288;2.794;2022-10-31T10:33:43;9.52;;;2.25;;
65092;SDS011;52025;50.288;2.794;2022-10-31T10:37:12;7.68;;;4.80;;
65092;SDS011;52025;50.288;2.794;2022-10-31T10:39:08;8.80;;;3.00;;
65092;SDS011;52025;50.288;2.794;2022-10-31T10:41:34;3.15;;;1.65;;
65092;SDS011;52025;50.288;2.794;2022-10-31T10:43:59;5.82;;;3.22;;
65092;SDS011;52025;50.288;2.794;2022-10-31T10:46:41;5.22;;;2.78;;
65092;SDS011;52025;50.288;2.794;2022-10-31T10:54:59;7.00;;;4.03;;
65092;SDS011;52025;50.288;2.794;2022-10-31T10:59:51;5.72;;;3.33;;
65092;SDS011;52025;50.288;2.794;2022-10-31T11:02:26;4.32;;;2.08;;
65092;SDS011;52025;50.288;2.794;2022-10-31T11:07:36;3.00;;;1.48;;
65092;SDS011;52025;50.288;2.794;2022-10-31T11:10:12;8.73;;;2.63;;
65092;SDS011;52025;50.288;2.794;2022-10-31T11:12:42;3.53;;;1.90;;
65092;SDS011;52025;50.288;2.794;2022-10-31T11:15:22;1.70;;;0.77;;
65092;SDS011;52025;50.288;2.794;2022-10-31T11:17:48;3.90;;;2.13;;
65092;SDS011;52025;50.288;2.794;2022-10-31T11:22:46;3.17;;;1.92;;
65092;SDS011;52025;50.288;2.794;2022-10-31T11:25:19;7.45;;;2.10;;
65092;SDS011;52025;50.288;2.794;2022-10-31T11:30:45;5.38;;;1.48;;
65092;SDS011;52025;50.288;2.794;2022-10-31T11:33:14;5.75;;;2.38;;
65092;SDS011;52025;50.288;2.794;2022-10-31T11:35:41;3.00;;;1.33;;
65092;SDS011;52025;50.288;2.794;2022-10-31T11:38:06;5.18;;;2.05;;
65092;SDS011;52025;50.288;2.794;2022-10-31T11:40:32;9.65;;;5.13;;
65092;SDS011;52025;50.288;2.794;2022-10-31T11:42:57;11.07;;;4.68;;
65092;SDS011;52025;50.288;2.794;2022-10-31T11:45:30;7.90;;;3.20;;
65092;SDS011;52025;50.288;2.794;2022-10-31T11:47:56;6.82;;;2.88;;
65092;SDS011;52025;50.288;2.794;2022-10-31T11:50:23;5.90;;;2.75;;
65092;SDS011;52025;50.288;2.794;2022-10-31T11:52:49;2.00;;;1.08;;
65092;SDS011;52025;50.288;2.794;2022-10-31T11:55:17;4.75;;;1.90;;
65092;SDS011;52025;50.288;2.794;2022-10-31T11:57:54;4.53;;;2.10;;
65092;SDS011;52025;50.288;2.794;2022-10-31T12:00:31;5.90;;;2.30;;
65092;SDS011;52025;50.288;2.794;2022-10-31T12:03:42;4.80;;;2.53;;
65092;SDS011;52025;50.288;2.794;2022-10-31T12:05:42;6.88;;;2.03;;
65092;SDS011;52025;50.288;2.794;2022-10-31T12:08:09;4.65;;;2.40;;
65092;SDS011;52025;50.288;2.794;2022-10-31T12:11:23;5.32;;;2.65;;
65092;SDS011;52025;50.288;2.794;2022-10-31T12:15:51;9.52;;;2.85;;
65092;SDS011;52025;50.288;2.794;2022-10-31T12:26:08;6.78;;;2.63;;
65092;SDS011;52025;50.288;2.794;2022-10-31T12:28:47;5.03;;;2.75;;
65092;SDS011;52025;50.288;2.794;2022-10-31T12:31:20;4.97;;;2.10;;
65092;SDS011;52025;50.288;2.794;2022-10-31T12:33:55;6.95;;;2.65;;
65092;SDS011;52025;50.288;2.794;2022-10-31T12:44:29;5.22;;;2.40;;
65092;SDS011;52025;50.288;2.794;2022-10-31T12:49:32;6.88;;;3.13;;
65092;SDS011;52025;50.288;2.794;2022-10-31T12:52:05;3.97;;;1.88;;
65092;SDS011;52025;50.288;2.794;2022-10-31T12:57:21;4.60;;;1.98;;
65092;SDS011;52025;50.288;2.794;2022-10-31T12:59:52;6.68;;;2.42;;
65092;SDS011;52025;50.288;2.794;2022-10-31T13:02:26;8.40;;;2.85;;
65092;SDS011;52025;50.288;2.794;2022-10-31T13:07:31;4.15;;;1.92;;
65092;SDS011;52025;50.288;2.794;2022-10-31T13:10:10;4.30;;;2.30;;
65092;SDS011;52025;50.288;2.794;2022-10-31T13:12:42;3.05;;;1.58;;
65092;SDS011;52025;50.288;2.794;2022-10-31T13:15:13;4.53;;;2.15;;
65092;SDS011;52025;50.288;2.794;2022-10-31T13:17:42;4.50;;;2.40;;
65092;SDS011;52025;50.288;2.794;2022-10-31T13:22:38;6.18;;;2.20;;
65092;SDS011;52025;50.288;2.794;2022-10-31T13:30:20;3.28;;;1.50;;
65092;SDS011;52025;50.288;2.794;2022-10-31T13:33:03;4.47;;;2.00;;
65092;SDS011;52025;50.288;2.794;2022-10-31T13:50:57;5.25;;;2.13;;
65092;SDS011;52025;50.288;2.794;2022-10-31T13:53:22;6.72;;;2.50;;
65092;SDS011;52025;50.288;2.794;2022-10-31T13:56:10;7.50;;;2.60;;
65092;SDS011;52025;50.288;2.794;2022-10-31T14:01:13;5.13;;;2.08;;
65092;SDS011;52025;50.288;2.794;2022-10-31T14:03:40;3.58;;;1.58;;
65092;SDS011;52025;50.288;2.794;2022-10-31T14:06:08;5.07;;;1.85;;
65092;SDS011;52025;50.288;2.794;2022-10-31T14:08:35;3.67;;;2.42;;
65092;SDS011;52025;50.288;2.794;2022-10-31T14:11:01;5.57;;;2.15;;
65092;SDS011;52025;50.288;2.794;2022-10-31T14:21:29;4.47;;;1.77;;
65092;SDS011;52025;50.288;2.794;2022-10-31T14:23:55;3.58;;;1.67;;
65092;SDS011;52025;50.288;2.794;2022-10-31T14:31:38;3.03;;;1.55;;
65092;SDS011;52025;50.288;2.794;2022-10-31T14:36:39;4.80;;;2.00;;
65092;SDS011;52025;50.288;2.794;2022-10-31T14:39:24;4.40;;;1.90;;
65092;SDS011;52025;50.288;2.794;2022-10-31T14:51:45;8.63;;;3.13;;
65092;SDS011;52025;50.288;2.794;2022-10-31T14:54:13;8.93;;;2.95;;
65092;SDS011;52025;50.288;2.794;2022-10-31T14:56:50;9.02;;;3.40;;
65092;SDS011;52025;50.288;2.794;2022-10-31T14:59:19;8.10;;;3.58;;
65092;SDS011;52025;50.288;2.794;2022-10-31T15:01:52;8.25;;;3.80;;
65092;SDS011;52025;50.288;2.794;2022-10-31T15:04:22;12.50;;;3.78;;
65092;SDS011;52025;50.288;2.794;2022-10-31T15:06:49;7.40;;;4.07;;
65092;SDS011;52025;50.288;2.794;2022-10-31T15:11:47;5.60;;;2.95;;
65092;SDS011;52025;50.288;2.794;2022-10-31T15:14:28;8.23;;;3.10;;
65092;SDS011;52025;50.288;2.794;2022-10-31T15:16:55;6.15;;;3.05;;
65092;SDS011;52025;50.288;2.794;2022-10-31T15:19:23;10.27;;;3.33;;
65092;SDS011;52025;50.288;2.794;2022-10-31T15:21:50;7.57;;;3.10;;
65092;SDS011;52025;50.288;2.794;2022-10-31T15:24:15;8.68;;;3.75;;
65092;SDS011;52025;50.288;2.794;2022-10-31T15:26:44;9.75;;;3.42;;
65092;SDS011;52025;50.288;2.794;2022-10-31T15:29:13;9.88;;;3.85;;
65092;SDS011;52025;50.288;2.794;2022-10-31T15:32:09;9.57;;;3.63;;
65092;SDS011;52025;50.288;2.794;2022-10-31T15:36:54;15.40;;;4.18;;
65092;SDS011;52025;50.288;2.794;2022-10-31T15:39:19;8.60;;;4.32;;
65092;SDS011;52025;50.288;2.794;2022-10-31T15:41:51;15.65;;;9.52;;
65092;SDS011;52025;50.288;2.794;2022-10-31T15:46:56;11.05;;;5.60;;
65092;SDS011;52025;50.288;2.794;2022-10-31T15:49:32;11.38;;;4.93;;
65092;SDS011;52025;50.288;2.794;2022-10-31T15:52:02;13.95;;;6.07;;
65092;SDS011;52025;50.288;2.794;2022-10-31T15:54:28;13.38;;;7.35;;
65092;SDS011;52025;50.288;2.794;2022-10-31T15:56:54;16.60;;;7.25;;
65092;SDS011;52025;50.288;2.794;2022-10-31T15:59:23;11.23;;;6.22;;
65092;SDS011;52025;50.288;2.794;2022-10-31T16:01:58;13.60;;;6.97;;
65092;SDS011;52025;50.288;2.794;2022-10-31T16:04:24;10.35;;;4.65;;
65092;SDS011;52025;50.288;2.794;2022-10-31T16:07:10;7.78;;;4.47;;
65092;SDS011;52025;50.288;2.794;2022-10-31T16:09:36;11.45;;;3.63;;
65092;SDS011;52025;50.288;2.794;2022-10-31T16:12:02;9.80;;;3.83;;
65092;SDS011;52025;50.288;2.794;2022-10-31T16:14:28;13.38;;;4.40;;
65092;SDS011;52025;50.288;2.794;2022-10-31T16:16:56;10.05;;;4.70;;
65092;SDS011;52025;50.288;2.794;2022-10-31T16:19:26;8.45;;;4.15;;
65092;SDS011;52025;50.288;2.794;2022-10-31T16:22:02;12.38;;;4.70;;
65092;SDS011;52025;50.288;2.794;2022-10-31T16:24:30;9.30;;;4.10;;
65092;SDS011;52025;50.288;2.794;2022-10-31T16:27:04;17.38;;;11.13;;
65092;SDS011;52025;50.288;2.794;2022-10-31T16:29:48;13.15;;;6.80;;
65092;SDS011;52025;50.288;2.794;2022-10-31T16:35:51;10.00;;;5.72;;
65092;SDS011;52025;50.288;2.794;2022-10-31T16:37:45;11.32;;;4.40;;
65092;SDS011;52025;50.288;2.794;2022-10-31T16:40:11;13.65;;;7.03;;
65092;SDS011;52025;50.288;2.794;2022-10-31T16:42:40;12.98;;;5.22;;
65092;SDS011;52025;50.288;2.794;2022-10-31T16:45:06;10.18;;;4.57;;
65092;SDS011;52025;50.288;2.794;2022-10-31T16:47:31;14.75;;;7.30;;
65092;SDS011;52025;50.288;2.794;2022-10-31T16:49:59;15.70;;;7.30;;
65092;SDS011;52025;50.288;2.794;2022-10-31T16:52:25;12.60;;;5.45;;
65092;SDS011;52025;50.288;2.794;2022-10-31T16:54:50;10.90;;;4.75;;
65092;SDS011;52025;50.288;2.794;2022-10-31T16:57:17;16.17;;;6.28;;
65092;SDS011;52025;50.288;2.794;2022-10-31T16:59:45;14.88;;;5.97;;
65092;SDS011;52025;50.288;2.794;2022-10-31T17:02:14;14.25;;;6.30;;
65092;SDS011;52025;50.288;2.794;2022-10-31T17:04:39;13.43;;;6.75;;
65092;SDS011;52025;50.288;2.794;2022-10-31T17:09:38;10.20;;;4.78;;
65092;SDS011;52025;50.288;2.794;2022-10-31T17:12:14;13.90;;;7.18;;
65092;SDS011;52025;50.288;2.794;2022-10-31T17:14:41;8.82;;;5.07;;
65092;SDS011;52025;50.288;2.794;2022-10-31T17:17:07;11.50;;;5.38;;
65092;SDS011;52025;50.288;2.794;2022-10-31T17:19:33;10.70;;;6.03;;
65092;SDS011;52025;50.288;2.794;2022-10-31T17:21:59;10.98;;;5.57;;
65092;SDS011;52025;50.288;2.794;2022-10-31T17:24:26;11.15;;;3.70;;
65092;SDS011;52025;50.288;2.794;2022-10-31T17:26:52;8.85;;;4.20;;
65092;SDS011;52025;50.288;2.794;2022-10-31T17:29:17;9.32;;;4.50;;
65092;SDS011;52025;50.288;2.794;2022-10-31T17:31:42;9.95;;;3.42;;